Time;durP1;ratioP1;P1;durP2;ratioP2;P2;SDS_P1;SDS_P2;PMS_P1;PMS_P2;Temp;Humidity;BMP_temperature;BMP_pressure;BME280_temperature;BME280_humidity;BME280_pressure;Samples;Min_cycle;Max_cycle;Signal;HPM_P1;HPM_P2
2023/01/14 00:01:05;;;;;;;12.98;2.15;;;8.10;87.30;;;;;;9172090;19;20472;-67
2023/01/14 00:04:06;;;;;;;22.52;3.33;;;8.10;87.40;;;;;;9174466;19;20014;-67
2023/01/14 00:07:08;;;;;;;18.27;2.28;;;8.10;87.40;;;;;;9182775;19;20014;-67
2023/01/14 00:10:10;;;;;;;10.65;1.75;;;8.00;87.40;;;;;;9181710;19;20134;-68
2023/01/14 00:13:11;;;;;;;14.02;2.17;;;8.00;88.00;;;;;;9183289;19;20042;-67
2023/01/14 00:16:13;;;;;;;13.30;2.33;;;8.00;87.40;;;;;;9181957;19;20023;-67
2023/01/14 00:19:16;;;;;;;10.48;1.65;;;8.00;87.40;;;;;;9180653;19;20519;-67
2023/01/14 00:22:17;;;;;;;13.32;2.42;;;8.00;87.50;;;;;;9182764;19;20022;-67
2023/01/14 00:25:19;;;;;;;11.43;2.22;;;8.00;87.50;;;;;;9182054;19;20023;-68
2023/01/14 00:28:21;;;;;;;12.15;2.20;;;8.00;87.50;;;;;;9182441;19;20014;-68
2023/01/14 00:31:25;;;;;;;18.08;2.30;;;8.00;87.50;;;;;;9182312;19;20025;-68
2023/01/14 00:34:30;;;;;;;9.40;1.75;;;8.10;87.60;;;;;;9183115;19;20022;-68
2023/01/14 00:37:31;;;;;;;15.00;2.35;;;8.00;87.50;;;;;;9182431;19;20017;-68
2023/01/14 00:40:33;;;;;;;27.08;3.15;;;8.10;87.50;;;;;;9179293;19;20032;-68
2023/01/14 00:43:35;;;;;;;13.63;2.15;;;8.10;87.50;;;;;;9182717;19;20490;-68
2023/01/14 00:46:39;;;;;;;13.98;1.88;;;8.10;87.50;;;;;;9179823;19;20026;-68
2023/01/14 00:49:40;;;;;;;14.38;2.53;;;8.10;87.50;;;;;;9181258;19;20018;-68
2023/01/14 00:52:42;;;;;;;18.55;2.53;;;8.10;87.50;;;;;;9177219;19;20022;-67
2023/01/14 00:55:44;;;;;;;10.00;1.75;;;8.10;87.40;;;;;;9180852;19;20018;-68
2023/01/14 00:58:46;;;;;;;19.15;2.63;;;8.10;87.50;;;;;;9179995;19;20015;-66
2023/01/14 01:01:48;;;;;;;20.20;2.70;;;8.10;87.50;;;;;;9180639;19;20427;-67
2023/01/14 01:04:49;;;;;;;13.32;2.45;;;8.10;87.50;;;;;;9180209;19;20096;-67
2023/01/14 01:07:51;;;;;;;9.73;1.85;;;8.00;87.40;;;;;;9181326;19;20030;-67
2023/01/14 01:10:54;;;;;;;10.45;2.10;;;8.00;87.40;;;;;;9178909;19;20056;-67
2023/01/14 01:13:59;;;;;;;14.97;3.03;;;8.00;87.50;;;;;;9177184;19;20022;-68
2023/01/14 01:17:00;;;;;;;18.30;2.40;;;8.00;87.50;;;;;;9178729;19;20472;-66
2023/01/14 01:20:02;;;;;;;17.73;2.50;;;8.10;87.50;;;;;;9178051;19;20023;-67
2023/01/14 01:23:05;;;;;;;14.32;2.03;;;8.10;87.50;;;;;;9180720;19;20490;-68
2023/01/14 01:26:09;;;;;;;14.32;2.25;;;8.10;87.50;;;;;;9180223;19;20438;-66
2023/01/14 01:29:11;;;;;;;12.20;2.53;;;8.10;87.50;;;;;;9178634;19;20009;-67
2023/01/14 01:32:12;;;;;;;12.77;2.97;;;8.10;87.50;;;;;;9180156;19;20022;-67
2023/01/14 01:35:14;;;;;;;15.55;1.85;;;8.10;87.50;;;;;;9179915;19;20015;-67
2023/01/14 01:38:15;;;;;;;17.48;2.40;;;8.10;87.50;;;;;;9179541;19;20035;-67
2023/01/14 01:41:21;;;;;;;9.60;1.92;;;8.10;87.50;;;;;;9180134;19;20025;-66
2023/01/14 01:44:23;;;;;;;14.20;2.10;;;8.10;87.50;;;;;;9179710;19;20837;-67
2023/01/14 01:47:24;;;;;;;14.80;2.40;;;8.10;87.50;;;;;;9179984;19;20071;-68
2023/01/14 01:50:26;;;;;;;20.05;2.45;;;8.20;87.60;;;;;;9178278;19;20018;-68
2023/01/14 01:53:28;;;;;;;17.98;2.33;;;8.20;87.50;;;;;;9173975;19;20378;-68
2023/01/14 01:56:34;;;;;;;17.38;2.55;;;8.20;87.50;;;;;;9177745;19;20022;-68
2023/01/14 01:59:39;;;;;;;20.35;3.25;;;8.20;87.50;;;;;;9175760;19;20041;-68
2023/01/14 02:02:43;;;;;;;23.08;4.00;;;8.20;87.50;;;;;;9177558;19;20660;-68
2023/01/14 02:05:46;;;;;;;20.52;2.42;;;8.20;87.50;;;;;;9179169;19;20029;-68
2023/01/14 02:08:50;;;;;;;14.68;2.08;;;8.20;87.50;;;;;;9175234;19;20026;-68
2023/01/14 02:12:20;;;;;;;17.90;3.50;;;8.20;87.50;;;;;;9173749;19;20045;-67
2023/01/14 02:15:34;;;;;;;13.88;2.90;;;8.30;87.50;;;;;;9179814;19;20026;-67
2023/01/14 02:18:56;;;;;;;18.92;3.20;;;8.20;87.40;;;;;;9176041;19;20349;-68
2023/01/14 02:22:26;;;;;;;17.83;2.70;;;8.30;87.50;;;;;;9177905;19;20477;-67
2023/01/14 02:25:58;;;;;;;23.77;2.95;;;8.30;87.50;;;;;;9176203;19;20056;-68
2023/01/14 02:28:59;;;;;;;18.98;1.95;;;8.30;87.50;;;;;;9178401;19;20514;-67
2023/01/14 02:32:39;;;;;;;15.15;3.00;;;8.30;87.50;;;;;;9176713;19;20349;-68
2023/01/14 02:35:49;;;;;;;19.85;2.67;;;8.30;87.40;;;;;;9175389;19;20017;-67
2023/01/14 02:39:01;;;;;;;16.40;3.47;;;8.30;87.40;;;;;;9175592;19;20052;-67
2023/01/14 02:45:44;;;;;;;21.25;3.05;;;8.30;87.40;;;;;;9177648;19;20382;-68
2023/01/14 02:48:48;;;;;;;21.88;3.15;;;8.30;87.30;;;;;;9176229;19;20015;-68
2023/01/14 02:51:49;;;;;;;20.43;2.90;;;8.30;87.30;;;;;;9177415;19;20370;-67
2023/01/14 02:54:57;;;;;;;19.77;3.58;;;8.30;87.30;;;;;;9171635;19;20117;-68
2023/01/14 02:58:24;;;;;;;24.63;2.83;;;8.20;87.20;;;;;;9174720;19;20085;-67
2023/01/14 03:01:30;;;;;;;26.33;2.85;;;8.30;87.30;;;;;;9175040;19;20029;-68
2023/01/14 03:05:00;;;;;;;14.02;2.40;;;8.20;87.20;;;;;;9173428;19;20015;-67
2023/01/14 03:08:20;;;;;;;16.40;2.83;;;8.20;87.20;;;;;;9177329;19;20030;-67
2023/01/14 03:11:26;;;;;;;19.48;3.70;;;8.20;87.20;;;;;;9171529;19;20026;-67
2023/01/14 03:14:46;;;;;;;23.20;4.13;;;8.20;87.20;;;;;;9174112;19;20097;-67
2023/01/14 03:18:00;;;;;;;29.63;4.40;;;8.10;87.10;;;;;;9176100;19;20027;-67
2023/01/14 03:21:04;;;;;;;16.40;2.70;;;8.10;87.10;;;;;;9173941;19;20043;-67
2023/01/14 03:24:12;;;;;;;27.00;2.92;;;8.00;87.10;;;;;;9175593;19;20015;-67
2023/01/14 03:27:23;;;;;;;20.85;2.92;;;8.00;87.10;;;;;;9176235;19;20021;-67
2023/01/14 03:30:35;;;;;;;31.15;3.42;;;8.00;87.10;;;;;;9174588;19;20019;-67
2023/01/14 03:33:44;;;;;;;17.15;3.25;;;8.00;87.20;;;;;;9174584;19;20430;-67
2023/01/14 03:36:47;;;;;;;14.40;2.53;;;7.90;87.10;;;;;;9174286;19;20523;-67
2023/01/14 03:39:51;;;;;;;19.27;2.85;;;7.90;87.10;;;;;;9175448;19;20034;-67
2023/01/14 03:42:59;;;;;;;21.17;3.15;;;7.90;87.20;;;;;;9183768;19;20038;-67
2023/01/14 03:46:01;;;;;;;24.48;3.80;;;7.90;87.20;;;;;;9183873;19;20014;-67
2023/01/14 03:49:03;;;;;;;21.63;4.15;;;7.80;87.10;;;;;;9182901;19;20474;-67
2023/01/14 03:52:20;;;;;;;28.33;4.57;;;7.80;87.20;;;;;;9183398;19;20056;-67
2023/01/14 03:55:50;;;;;;;14.73;3.00;;;7.80;87.20;;;;;;9178273;19;20022;-67
2023/01/14 03:59:02;;;;;;;27.63;3.50;;;7.80;87.20;;;;;;9180449;19;20048;-67
2023/01/14 04:02:05;;;;;;;30.05;3.40;;;7.70;87.10;;;;;;9179515;19;20022;-67
2023/01/14 04:05:08;;;;;;;25.65;3.20;;;8.00;87.50;;;;;;9183834;19;20021;-67
2023/01/14 04:08:10;;;;;;;25.00;4.22;;;7.70;87.20;;;;;;9182895;19;20396;-67
2023/01/14 04:11:11;;;;;;;22.52;3.55;;;7.70;87.20;;;;;;9180815;19;20090;-67
2023/01/14 04:17:37;;;;;;;16.77;2.83;;;7.60;87.20;;;;;;9183396;19;20043;-67
2023/01/14 04:20:38;;;;;;;24.08;3.78;;;7.60;87.20;;;;;;9179469;19;20019;-67
2023/01/14 04:23:40;;;;;;;20.15;3.20;;;7.50;87.10;;;;;;9182133;19;20015;-67
2023/01/14 04:26:41;;;;;;;20.23;2.78;;;7.50;87.20;;;;;;9181997;19;20018;-67
2023/01/14 04:29:43;;;;;;;26.90;3.70;;;7.50;87.20;;;;;;9182691;19;20044;-67
2023/01/14 04:32:45;;;;;;;25.90;4.43;;;7.50;87.20;;;;;;9182582;19;20026;-67
2023/01/14 04:35:50;;;;;;;27.27;4.70;;;7.50;87.20;;;;;;9182344;19;20374;-67
2023/01/14 04:38:51;;;;;;;26.42;3.95;;;7.40;87.10;;;;;;9181046;19;20495;-67
2023/01/14 04:45:13;;;;;;;19.17;5.30;;;7.40;87.20;;;;;;9181498;19;20030;-67
2023/01/14 04:48:14;;;;;;;28.90;4.63;;;7.30;87.70;;;;;;9181766;19;20093;-67
2023/01/14 04:51:15;;;;;;;33.55;4.80;;;7.30;87.20;;;;;;9178630;19;20097;-67
2023/01/14 04:54:17;;;;;;;31.90;4.35;;;7.30;87.20;;;;;;9177349;19;20950;-67
2023/01/14 04:57:18;;;;;;;29.77;3.53;;;7.20;87.20;;;;;;9176562;19;20022;-67
2023/01/14 05:00:20;;;;;;;26.73;3.75;;;7.20;87.20;;;;;;9178681;19;20019;-67
2023/01/14 05:03:21;;;;;;;36.33;5.13;;;7.20;87.30;;;;;;9181174;19;20476;-67
2023/01/14 05:06:23;;;;;;;27.95;4.22;;;7.20;87.30;;;;;;9181271;19;20039;-67
2023/01/14 05:09:24;;;;;;;36.67;5.45;;;7.10;87.30;;;;;;9180936;19;20030;-67
2023/01/14 05:12:25;;;;;;;25.90;4.65;;;7.10;87.30;;;;;;9179448;19;20023;-67
2023/01/14 05:15:30;;;;;;;42.30;5.53;;;7.10;87.40;;;;;;9180349;19;20018;-67
2023/01/14 05:18:32;;;;;;;23.40;3.63;;;7.10;87.40;;;;;;9180769;19;20015;-67
2023/01/14 05:21:33;;;;;;;26.35;4.15;;;7.10;87.40;;;;;;9180407;19;20038;-67
2023/01/14 05:24:34;;;;;;;36.38;4.18;;;7.10;87.40;;;;;;9180896;19;20621;-68
2023/01/14 05:27:36;;;;;;;25.58;4.13;;;7.10;87.40;;;;;;9180494;19;20018;-68
2023/01/14 05:30:37;;;;;;;39.72;5.43;;;7.10;87.40;;;;;;9181246;19;20026;-67
2023/01/14 05:33:39;;;;;;;39.30;4.43;;;7.10;87.50;;;;;;9179945;19;20038;-68
2023/01/14 05:36:40;;;;;;;24.23;3.33;;;7.00;87.40;;;;;;9181027;19;20014;-67
2023/01/14 05:39:41;;;;;;;27.75;4.32;;;7.00;87.50;;;;;;9176606;19;20130;-68
2023/01/14 05:46:08;;;;;;;26.88;5.85;;;7.00;87.60;;;;;;9179535;19;20487;-68
2023/01/14 05:49:10;;;;;;;38.20;4.50;;;7.00;87.50;;;;;;9179679;19;20384;-67
2023/01/14 05:52:11;;;;;;;31.50;4.07;;;7.00;87.60;;;;;;9179397;19;20023;-66
2023/01/14 05:55:13;;;;;;;36.03;3.85;;;7.00;87.60;;;;;;9169094;19;20015;-68
2023/01/14 05:58:14;;;;;;;30.45;3.45;;;7.00;87.60;;;;;;9179153;19;20056;-66
2023/01/14 06:07:56;;;;;;;23.35;3.67;;;7.10;87.70;;;;;;9178922;19;20044;-66
2023/01/14 06:10:59;;;;;;;32.97;4.13;;;7.00;87.80;;;;;;9175549;19;20037;-66
2023/01/14 06:14:01;;;;;;;31.55;5.88;;;7.00;87.70;;;;;;9169839;19;20551;-67
2023/01/14 06:17:08;;;;;;;35.80;4.82;;;7.00;87.70;;;;;;9172337;19;20025;-67
2023/01/14 06:20:10;;;;;;;29.50;4.22;;;7.00;87.70;;;;;;9169434;19;20075;-67
2023/01/14 06:23:13;;;;;;;32.40;3.63;;;7.10;87.80;;;;;;9169051;19;20025;-68
2023/01/14 06:26:17;;;;;;;26.38;4.20;;;7.10;87.80;;;;;;9177388;19;20035;-67
2023/01/14 06:29:18;;;;;;;33.85;4.63;;;7.10;87.90;;;;;;9177609;19;20026;-68
2023/01/14 06:32:20;;;;;;;34.90;4.53;;;7.10;87.90;;;;;;9177950;19;20430;-68
2023/01/14 06:35:22;;;;;;;29.55;4.35;;;7.10;87.90;;;;;;9178350;19;20033;-68
2023/01/14 06:38:23;;;;;;;26.95;3.80;;;7.10;87.90;;;;;;9177265;19;20063;-66
2023/01/14 06:41:25;;;;;;;32.53;4.68;;;7.10;87.90;;;;;;9177753;19;20376;-67
2023/01/14 06:44:27;;;;;;;20.88;4.30;;;7.10;87.90;;;;;;9177361;19;20022;-67
2023/01/14 06:47:28;;;;;;;26.88;4.40;;;7.20;88.00;;;;;;9177864;19;20019;-67
2023/01/14 06:50:29;;;;;;;27.50;4.30;;;7.10;87.90;;;;;;9175153;19;20360;-67
2023/01/14 06:53:31;;;;;;;27.10;4.40;;;7.10;87.90;;;;;;9172807;19;20064;-66
2023/01/14 06:56:33;;;;;;;33.33;4.03;;;7.20;88.00;;;;;;9177450;19;20030;-68
2023/01/14 06:59:34;;;;;;;24.75;3.38;;;7.20;88.00;;;;;;9174716;19;20048;-67
2023/01/14 07:02:35;;;;;;;27.88;4.15;;;7.20;88.10;;;;;;9176507;19;20018;-67
2023/01/14 07:05:38;;;;;;;23.50;4.63;;;7.20;88.00;;;;;;9175850;19;20023;-66
2023/01/14 07:08:40;;;;;;;25.90;3.70;;;7.20;88.00;;;;;;9177285;19;20406;-68
2023/01/14 07:11:42;;;;;;;27.23;3.80;;;7.20;88.00;;;;;;9173177;19;20051;-67
2023/01/14 07:14:44;;;;;;;24.92;3.63;;;7.20;88.00;;;;;;9180322;19;20014;-68
2023/01/14 07:17:46;;;;;;;20.52;4.93;;;7.20;88.00;;;;;;9184953;19;20025;-67
2023/01/14 07:20:48;;;;;;;31.77;4.20;;;7.20;88.10;;;;;;9183000;19;20442;-66
2023/01/14 07:23:50;;;;;;;22.17;3.30;;;7.20;88.00;;;;;;9184315;19;20487;-67
2023/01/14 07:26:52;;;;;;;31.13;3.60;;;7.20;88.00;;;;;;9185177;19;20114;-66
2023/01/14 07:29:53;;;;;;;22.88;3.60;;;7.20;88.10;;;;;;9184661;19;20391;-67
2023/01/14 07:32:58;;;;;;;26.35;3.20;;;7.20;88.10;;;;;;9184178;19;20100;-68
2023/01/14 07:35:59;;;;;;;22.13;3.60;;;7.30;88.10;;;;;;9185119;19;20398;-68
2023/01/14 07:39:00;;;;;;;28.23;4.65;;;7.20;88.00;;;;;;9183530;19;20863;-68
2023/01/14 07:42:02;;;;;;;26.75;4.03;;;7.30;88.10;;;;;;9183394;19;20039;-68
2023/01/14 07:45:05;;;;;;;33.35;3.55;;;7.30;88.10;;;;;;9184136;19;20043;-68
2023/01/14 07:48:06;;;;;;;32.13;4.28;;;7.30;88.20;;;;;;9182227;19;20022;-68
2023/01/14 07:51:08;;;;;;;33.28;3.20;;;7.30;88.20;;;;;;9184074;19;20456;-68
2023/01/14 07:54:09;;;;;;;18.38;3.63;;;7.30;88.10;;;;;;9179527;19;20480;-68
2023/01/14 07:57:12;;;;;;;22.90;3.90;;;7.30;88.10;;;;;;9183540;19;20022;-68
2023/01/14 08:00:14;;;;;;;18.30;2.88;;;7.30;88.10;;;;;;9181064;19;20372;-68
2023/01/14 08:03:16;;;;;;;15.43;2.53;;;7.40;88.20;;;;;;9183466;19;20517;-68
2023/01/14 08:06:17;;;;;;;32.55;3.38;;;7.40;88.20;;;;;;9183751;19;20021;-67
2023/01/14 08:09:19;;;;;;;34.72;3.63;;;7.40;88.20;;;;;;9183358;19;20487;-68
2023/01/14 08:12:20;;;;;;;30.50;4.38;;;7.40;88.20;;;;;;9181377;19;20018;-68
2023/01/14 08:15:21;;;;;;;25.55;3.60;;;7.40;88.20;;;;;;9179174;19;20015;-68
2023/01/14 08:18:23;;;;;;;17.80;3.15;;;7.40;88.20;;;;;;9181329;19;20018;-67
2023/01/14 08:21:24;;;;;;;25.15;2.90;;;7.40;88.20;;;;;;9181690;19;20096;-68
2023/01/14 08:24:26;;;;;;;22.20;3.70;;;7.40;88.20;;;;;;9181693;19;20047;-67
2023/01/14 08:27:28;;;;;;;19.30;3.03;;;7.50;90.80;;;;;;9182427;19;20508;-68
2023/01/14 08:30:29;;;;;;;36.88;5.40;;;7.50;89.10;;;;;;9182517;19;20471;-67
2023/01/14 08:33:31;;;;;;;21.50;3.30;;;7.50;88.30;;;;;;9181757;19;20015;-67
2023/01/14 08:36:32;;;;;;;16.50;3.63;;;7.50;88.30;;;;;;9182605;19;20010;-68
2023/01/14 08:39:34;;;;;;;26.48;3.33;;;7.50;88.30;;;;;;9180817;19;20018;-67
2023/01/14 08:42:35;;;;;;;23.55;3.00;;;7.50;88.30;;;;;;9179861;19;20027;-67
2023/01/14 08:45:36;;;;;;;18.27;2.58;;;7.50;88.40;;;;;;9182636;19;20014;-67
2023/01/14 08:48:38;;;;;;;18.83;2.15;;;7.50;88.30;;;;;;9181990;19;20044;-67
2023/01/14 08:51:40;;;;;;;21.75;3.22;;;7.60;88.50;;;;;;9182925;19;20014;-66
2023/01/14 08:54:41;;;;;;;20.38;3.35;;;7.60;88.40;;;;;;9177387;19;20025;-67
2023/01/14 08:57:42;;;;;;;29.52;3.47;;;7.60;88.40;;;;;;9182362;19;20082;-67
2023/01/14 09:00:44;;;;;;;20.73;3.03;;;7.60;88.40;;;;;;9179180;19;20015;-67
2023/01/14 09:03:48;;;;;;;19.63;3.50;;;7.60;88.50;;;;;;9180164;19;20022;-67
2023/01/14 09:17:05;;;;;;;16.98;2.88;;;7.60;88.50;;;;;;9175357;19;20015;-67
2023/01/14 09:20:17;;;;;;;16.92;2.75;;;7.60;88.50;;;;;;9172951;19;20010;-67
2023/01/14 09:23:19;;;;;;;11.30;2.30;;;7.70;88.60;;;;;;9173661;19;20023;-67
2023/01/14 09:26:20;;;;;;;18.08;3.10;;;7.70;88.60;;;;;;9173211;19;20393;-67
2023/01/14 09:29:22;;;;;;;16.23;2.50;;;7.60;88.60;;;;;;9174196;19;20013;-67
2023/01/14 09:32:24;;;;;;;14.05;2.45;;;7.70;88.70;;;;;;9178960;19;20348;-67
2023/01/14 09:35:25;;;;;;;16.85;2.70;;;7.70;88.70;;;;;;9180266;19;20018;-67
2023/01/14 09:38:28;;;;;;;10.80;3.88;;;7.70;88.70;;;;;;9177035;19;20015;-67
2023/01/14 09:41:35;;;;;;;19.48;2.92;;;7.70;88.70;;;;;;9180229;19;20043;-67
2023/01/14 09:44:40;;;;;;;13.43;2.92;;;7.70;88.80;;;;;;9178956;19;20018;-67
2023/01/14 09:47:43;;;;;;;12.75;3.10;;;7.70;88.80;;;;;;9180154;19;20010;-67
2023/01/14 09:50:59;;;;;;;13.85;2.85;;;7.70;88.80;;;;;;9179494;19;20041;-67
2023/01/14 09:54:12;;;;;;;12.82;3.35;;;7.80;88.90;;;;;;9175031;19;20016;-67
2023/01/14 09:57:22;;;;;;;12.87;3.03;;;7.80;88.90;;;;;;9179687;19;20089;-67
2023/01/14 10:00:27;;;;;;;10.88;3.22;;;7.80;88.90;;;;;;9177000;19;20017;-66
2023/01/14 10:03:47;;;;;;;9.45;2.47;;;7.80;88.90;;;;;;9176763;19;20649;-67
2023/01/14 10:06:52;;;;;;;14.35;2.55;;;7.80;88.90;;;;;;9179592;19;20014;-67
2023/01/14 10:10:00;;;;;;;19.15;2.40;;;7.90;89.00;;;;;;9178172;19;20048;-67
2023/01/14 10:13:09;;;;;;;13.60;2.92;;;7.90;89.10;;;;;;9180305;19;20021;-67
2023/01/14 10:16:16;;;;;;;10.00;2.50;;;7.90;89.10;;;;;;9179905;19;20111;-67
2023/01/14 10:19:39;;;;;;;12.65;2.25;;;7.90;89.10;;;;;;9178141;19;20734;-67
2023/01/14 10:22:45;;;;;;;10.98;1.90;;;7.90;89.20;;;;;;9179577;19;20476;-67
2023/01/14 10:25:51;;;;;;;13.77;3.63;;;8.00;89.10;;;;;;9179860;19;20086;-67
2023/01/14 10:28:57;;;;;;;8.57;1.73;;;8.00;89.20;;;;;;9179227;19;20011;-68
2023/01/14 10:32:00;;;;;;;9.70;2.22;;;8.00;89.20;;;;;;9178476;19;20385;-67
2023/01/14 10:35:03;;;;;;;6.95;2.15;;;8.00;89.20;;;;;;9174285;19;20011;-67
2023/01/14 10:38:05;;;;;;;13.73;2.45;;;8.10;89.30;;;;;;9178487;19;20026;-67
2023/01/14 10:41:11;;;;;;;10.02;1.77;;;8.10;89.30;;;;;;9174473;19;20045;-68
2023/01/14 10:44:33;;;;;;;9.68;1.92;;;8.10;89.40;;;;;;9178250;19;20091;-67
2023/01/14 10:47:34;;;;;;;4.53;1.40;;;8.20;89.50;;;;;;9178160;19;20022;-67
2023/01/14 10:50:36;;;;;;;7.25;1.60;;;8.20;89.50;;;;;;9178058;19;20018;-67
2023/01/14 10:53:40;;;;;;;5.15;1.63;;;8.20;89.50;;;;;;9174894;19;20010;-67
2023/01/14 10:56:58;;;;;;;6.53;1.42;;;8.20;89.50;;;;;;9179054;19;20026;-67
2023/01/14 11:00:00;;;;;;;8.80;1.48;;;8.30;89.50;;;;;;9175281;19;20018;-67
2023/01/14 11:03:07;;;;;;;7.22;1.73;;;8.30;89.60;;;;;;9177339;19;20019;-67
2023/01/14 11:06:14;;;;;;;8.88;1.83;;;8.30;89.60;;;;;;9177129;19;20441;-67
2023/01/14 11:09:26;;;;;;;6.32;1.23;;;8.40;89.70;;;;;;9177849;19;20363;-67
2023/01/14 11:12:31;;;;;;;6.30;1.70;;;8.40;89.60;;;;;;9177862;19;20026;-68
2023/01/14 11:15:33;;;;;;;14.05;2.30;;;8.40;89.70;;;;;;9176533;19;20010;-68
2023/01/14 11:18:35;;;;;;;10.88;1.55;;;8.40;89.60;;;;;;9176405;19;20011;-68
2023/01/14 11:21:45;;;;;;;5.38;1.45;;;8.50;89.70;;;;;;9176936;19;20059;-67
2023/01/14 11:24:54;;;;;;;8.38;1.50;;;8.50;89.70;;;;;;9177100;19;20482;-68
2023/01/14 11:27:59;;;;;;;13.88;1.83;;;8.50;89.70;;;;;;9176643;19;20078;-67
2023/01/14 11:31:00;;;;;;;11.90;1.42;;;8.50;89.70;;;;;;9174797;19;20019;-66
2023/01/14 11:34:02;;;;;;;6.45;1.50;;;8.60;89.70;;;;;;9176596;19;20021;-68
2023/01/14 11:37:09;;;;;;;6.95;1.55;;;8.60;89.70;;;;;;9175400;19;20070;-68
2023/01/14 11:44:01;;;;;;;11.40;1.95;;;8.60;89.80;;;;;;9175622;19;20040;-68
2023/01/14 11:47:15;;;;;;;9.45;1.95;;;8.60;89.70;;;;;;9175774;19;20006;-68
2023/01/14 11:50:21;;;;;;;8.02;1.33;;;8.70;89.90;;;;;;9175000;19;20022;-68
2023/01/14 11:53:26;;;;;;;4.90;2.00;;;8.70;89.80;;;;;;9171008;19;20015;-67
2023/01/14 11:56:38;;;;;;;6.90;1.27;;;8.70;89.80;;;;;;9175067;19;20023;-68
2023/01/14 11:59:40;;;;;;;7.35;2.15;;;8.70;89.90;;;;;;9173889;19;20019;-68
2023/01/14 12:02:46;;;;;;;5.90;1.77;;;8.70;89.90;;;;;;9181530;19;20514;-66
2023/01/14 12:05:50;;;;;;;9.45;1.40;;;8.80;90.00;;;;;;9175233;19;20018;-66
2023/01/14 12:08:59;;;;;;;6.00;1.80;;;8.80;90.00;;;;;;9177649;19;20721;-66
2023/01/14 12:12:05;;;;;;;7.53;1.80;;;8.80;90.00;;;;;;9174510;19;20032;-66
2023/01/14 12:18:43;;;;;;;10.95;1.75;;;8.90;90.00;;;;;;9176868;19;20488;-66
2023/01/14 12:21:49;;;;;;;1.90;1.17;;;8.90;90.00;;;;;;9177265;19;20396;-66
2023/01/14 12:25:32;;;;;;;8.75;1.65;;;8.90;90.00;;;;;;9175629;19;20531;-66
2023/01/14 12:28:41;;;;;;;5.72;1.40;;;8.90;90.00;;;;;;9172586;19;20050;-66
2023/01/14 12:31:52;;;;;;;10.00;1.25;;;8.90;90.00;;;;;;9173280;19;20021;-66
2023/01/14 12:34:59;;;;;;;7.65;1.35;;;9.00;90.00;;;;;;9175712;19;20018;-66
2023/01/14 12:45:41;;;;;;;4.45;1.20;;;9.00;90.00;;;;;;9176512;19;20356;-66
2023/01/14 12:48:41;;;;;;;7.72;1.23;;;9.10;90.10;;;;;;9175123;19;20025;-68
2023/01/14 12:51:44;;;;;;;7.40;1.23;;;9.10;90.10;;;;;;9173700;19;20023;-67
2023/01/14 12:54:49;;;;;;;4.55;1.30;;;9.10;90.10;;;;;;9171608;19;20041;-67
2023/01/14 12:57:53;;;;;;;1.48;0.90;;;9.10;90.10;;;;;;9173480;19;20416;-67
2023/01/14 13:00:59;;;;;;;3.47;1.25;;;9.20;90.20;;;;;;9170642;19;20014;-66
2023/01/14 13:04:14;;;;;;;4.15;1.23;;;9.20;90.20;;;;;;9174548;19;20032;-67
2023/01/14 13:07:23;;;;;;;2.97;0.90;;;9.30;90.20;;;;;;9173687;19;21054;-68
2023/01/14 13:10:32;;;;;;;1.73;0.68;;;9.30;90.20;;;;;;9173926;19;20019;-68
2023/01/14 13:13:34;;;;;;;3.92;0.80;;;9.30;90.20;;;;;;9172143;19;20015;-68
2023/01/14 13:16:38;;;;;;;1.50;0.70;;;9.40;90.30;;;;;;9173625;19;20097;-66
2023/01/14 13:19:52;;;;;;;1.15;0.63;;;9.40;90.20;;;;;;9170694;19;20132;-68
2023/01/14 13:22:55;;;;;;;3.75;0.90;;;9.40;90.30;;;;;;9173281;19;20023;-68
2023/01/14 13:25:57;;;;;;;3.17;1.10;;;9.40;90.30;;;;;;9174570;19;20106;-67
2023/01/14 13:29:22;;;;;;;1.48;0.73;;;9.50;90.30;;;;;;9173213;19;20480;-66
2023/01/14 13:33:01;;;;;;;6.13;0.80;;;9.50;90.40;;;;;;9174248;19;20021;-67
2023/01/14 13:36:09;;;;;;;2.17;0.80;;;9.50;90.30;;;;;;9173580;19;20023;-67
2023/01/14 13:39:18;;;;;;;0.73;0.43;;;9.60;90.30;;;;;;9170263;19;20078;-67
2023/01/14 13:42:28;;;;;;;1.77;0.47;;;9.60;90.30;;;;;;9173718;19;20018;-67
2023/01/14 13:45:33;;;;;;;2.47;0.80;;;9.60;90.40;;;;;;9173945;19;20018;-66
2023/01/14 13:48:50;;;;;;;2.13;0.57;;;9.70;90.40;;;;;;9172754;19;20010;-67
2023/01/14 13:51:58;;;;;;;0.80;0.52;;;9.70;90.40;;;;;;9174383;19;20527;-67
2023/01/14 13:55:12;;;;;;;2.88;0.70;;;9.70;90.40;;;;;;9169158;19;20078;-68
2023/01/14 13:58:30;;;;;;;0.50;0.50;;;9.80;90.40;;;;;;9173268;19;20475;-66
2023/01/14 14:01:32;;;;;;;0.50;0.38;;;9.80;90.40;;;;;;9168538;19;20018;-68
2023/01/14 14:04:55;;;;;;;1.17;0.63;;;9.90;90.60;;;;;;9172947;19;20796;-68
2023/01/14 14:08:09;;;;;;;4.78;0.70;;;9.90;90.50;;;;;;9171646;19;20014;-67
2023/01/14 14:11:12;;;;;;;3.65;0.60;;;9.90;90.50;;;;;;9167704;19;20035;-68
2023/01/14 14:14:19;;;;;;;6.22;0.93;;;9.90;90.40;;;;;;9171471;19;20014;-67
2023/01/14 14:17:34;;;;;;;1.55;0.50;;;9.90;90.40;;;;;;9172271;19;20014;-68
2023/01/14 14:20:43;;;;;;;1.13;0.50;;;10.00;90.50;;;;;;9169015;19;20460;-67
2023/01/14 14:23:56;;;;;;;0.93;0.60;;;10.00;90.50;;;;;;9171341;19;20018;-67
2023/01/14 14:27:03;;;;;;;3.35;0.68;;;10.00;90.50;;;;;;9171885;19;20989;-67
2023/01/14 14:30:32;;;;;;;1.27;0.68;;;10.00;90.50;;;;;;9170347;19;20022;-68
2023/01/14 14:33:40;;;;;;;1.90;0.80;;;10.00;90.50;;;;;;9170520;19;20089;-68
2023/01/14 14:36:46;;;;;;;1.10;0.47;;;10.10;90.50;;;;;;9171669;19;20014;-68
2023/01/14 14:39:55;;;;;;;1.42;0.65;;;10.10;90.50;;;;;;9168864;19;20026;-68
2023/01/14 14:42:57;;;;;;;0.80;0.63;;;10.10;90.50;;;;;;9168929;19;20007;-67
2023/01/14 14:46:07;;;;;;;0.60;0.50;;;10.10;90.50;;;;;;9170844;19;20438;-67
2023/01/14 14:49:22;;;;;;;1.75;0.70;;;10.10;90.50;;;;;;9169376;19;20030;-67
2023/01/14 14:52:26;;;;;;;0.63;0.40;;;10.10;90.60;;;;;;9170808;19;20018;-68
2023/01/14 14:55:50;;;;;;;0.38;0.35;;;10.10;90.50;;;;;;9165534;19;20598;-68
2023/01/14 14:58:55;;;;;;;3.40;0.60;;;10.20;90.60;;;;;;9170970;19;20014;-67
2023/01/14 15:01:59;;;;;;;3.03;0.60;;;10.20;90.60;;;;;;9168975;19;20034;-68
2023/01/14 15:05:02;;;;;;;;;;;10.20;90.60;;;;;;9170263;19;20029;-67
2023/01/14 15:08:09;;;;;;;3.40;0.60;;;10.20;90.60;;;;;;9169777;19;19931;-67
2023/01/14 15:11:15;;;;;;;3.78;0.88;;;10.20;90.50;;;;;;9166999;19;20480;-67
2023/01/14 15:14:24;;;;;;;1.45;0.63;;;10.30;90.60;;;;;;9170121;19;20019;-68
2023/01/14 15:17:26;;;;;;;2.40;1.05;;;10.30;90.60;;;;;;9164272;19;20026;-67
2023/01/14 15:20:27;;;;;;;0.52;0.50;;;10.30;90.60;;;;;;9165549;19;20018;-68
2023/01/14 15:23:30;;;;;;;0.80;0.55;;;10.30;90.60;;;;;;9170241;19;20706;-67
2023/01/14 15:26:35;;;;;;;4.80;1.10;;;10.30;90.60;;;;;;9169679;19;20015;-67
2023/01/14 15:29:37;;;;;;;1.08;0.65;;;10.30;90.60;;;;;;9169335;19;20018;-67
2023/01/14 15:32:40;;;;;;;1.15;0.65;;;10.40;90.70;;;;;;9169966;19;20060;-68
2023/01/14 15:35:42;;;;;;;0.77;0.77;;;10.40;90.70;;;;;;9170944;19;20018;-68
2023/01/14 15:38:45;;;;;;;0.50;0.50;;;10.40;90.70;;;;;;9176986;19;20360;-67
2023/01/14 15:41:59;;;;;;;0.50;0.50;;;10.40;90.70;;;;;;9174701;19;20540;-67
2023/01/14 15:45:01;;;;;;;1.30;0.68;;;10.40;90.70;;;;;;9176827;19;20144;-68
2023/01/14 15:48:05;;;;;;;0.80;0.70;;;10.50;90.70;;;;;;9177504;19;20018;-67
2023/01/14 15:51:08;;;;;;;1.10;0.65;;;10.50;90.70;;;;;;9173241;19;20015;-67
2023/01/14 15:54:35;;;;;;;3.50;1.00;;;10.50;90.70;;;;;;9171180;19;20044;-67
2023/01/14 15:57:42;;;;;;;0.98;0.60;;;10.50;90.70;;;;;;9178475;19;20015;-67
2023/01/14 16:00:45;;;;;;;0.43;0.43;;;10.50;90.70;;;;;;9173785;19;20026;-68
2023/01/14 16:03:49;;;;;;;1.08;0.70;;;10.60;90.70;;;;;;9174765;19;20029;-67
2023/01/14 16:07:14;;;;;;;0.50;0.50;;;10.60;90.80;;;;;;9174608;19;20365;-67
2023/01/14 16:10:16;;;;;;;1.35;0.52;;;10.60;90.80;;;;;;9175613;19;20014;-68
2023/01/14 16:13:20;;;;;;;0.75;0.45;;;10.60;90.70;;;;;;9172092;19;20051;-67
2023/01/14 16:16:24;;;;;;;0.60;0.60;;;10.60;90.80;;;;;;9174388;19;20025;-67
2023/01/14 16:19:25;;;;;;;1.35;0.57;;;10.60;90.80;;;;;;9175701;19;20019;-67
2023/01/14 16:22:27;;;;;;;0.95;0.70;;;10.70;90.80;;;;;;9177038;19;20022;-67
2023/01/14 16:25:29;;;;;;;1.02;0.50;;;10.70;90.80;;;;;;9174686;19;20122;-67
2023/01/14 16:28:31;;;;;;;0.57;0.50;;;10.70;90.80;;;;;;9173593;19;20046;-67
2023/01/14 16:31:32;;;;;;;1.08;0.70;;;10.70;90.80;;;;;;9173095;19;20025;-66
2023/01/14 16:34:34;;;;;;;1.55;0.60;;;10.70;90.80;;;;;;9172849;19;20026;-68
2023/01/14 16:37:35;;;;;;;1.27;0.60;;;10.70;90.80;;;;;;9164999;19;20022;-68
2023/01/14 16:40:40;;;;;;;1.10;0.70;;;10.80;90.90;;;;;;9155129;19;20022;-68
2023/01/14 16:43:42;;;;;;;0.70;0.60;;;10.80;90.90;;;;;;9155897;19;20025;-68
2023/01/14 16:46:43;;;;;;;0.93;0.80;;;10.80;90.90;;;;;;9155736;19;20037;-68
2023/01/14 16:49:44;;;;;;;0.73;0.50;;;10.80;90.90;;;;;;9156653;19;20018;-68
2023/01/14 16:52:46;;;;;;;0.68;0.55;;;10.90;91.00;;;;;;9154996;19;20585;-67